Aviation Digital Data Service (ADDS)

Output produced by METARs form (0150 UTC 31 May 2020)
found at http://aviationweather.gov/metar/data/
 
METAR text: ETMN 310120Z AUTO 09002KT 9999 // ////// 11/05 Q1026 ///
Conditions at: ETMN (NORDHOLZ (GER-NA, DE) observed 0120 UTC 31 May 2020
Temperature: 11.0°C (52°F)
Dewpoint: 5.0°C (41°F) [RH = 66%]
Pressure (altimeter): 30.30 inches Hg (1026.0 mb)
Winds: from the E (90 degrees) at 2 MPH (2 knots; 1.0 m/s)
Visibility: 6 or more miles (10+ km)
Ceiling: unknown
Clouds: missing
Weather: no significant weather observed at this time